Time;durP1;ratioP1;P1;durP2;ratioP2;P2;SDS_P1;SDS_P2;PMS_P1;PMS_P2;Temp;Humidity;BMP_temperature;BMP_pressure;BME280_temperature;BME280_humidity;BME280_pressure;Samples;Min_cycle;Max_cycle;Signal;HPM_P1;HPM_P2
2021/05/18 00:01:18;;;;;;;1.60;0.30;;;10.70;84.20;;;;;;5017144;28;20021;-72
2021/05/18 00:03:44;;;;;;;3.55;0.25;;;10.60;85.50;;;;;;5017046;28;20429;-72
2021/05/18 00:06:10;;;;;;;0.73;0.20;;;10.50;85.10;;;;;;5017111;28;20465;-72
2021/05/18 00:11:43;;;;;;;1.63;0.40;;;10.40;85.50;;;;;;5017080;28;20040;-71
2021/05/18 00:14:06;;;;;;;1.50;0.20;;;10.10;87.00;;;;;;5016688;28;20441;-71
2021/05/18 00:16:32;;;;;;;0.45;0.22;;;10.00;87.70;;;;;;5016960;28;20319;-72
2021/05/18 00:18:58;;;;;;;1.05;0.20;;;10.00;87.20;;;;;;5017000;28;20022;-72
2021/05/18 00:21:24;;;;;;;1.15;0.30;;;10.00;86.00;;;;;;5016654;28;20411;-71
2021/05/18 00:23:49;;;;;;;0.93;0.30;;;10.10;85.70;;;;;;5016898;28;20026;-72
2021/05/18 00:26:15;;;;;;;0.70;0.25;;;10.20;85.80;;;;;;5016819;28;20100;-72
2021/05/18 00:28:41;;;;;;;1.15;0.30;;;10.20;86.50;;;;;;5016589;28;20058;-72
2021/05/18 00:31:07;;;;;;;1.95;0.30;;;10.20;86.70;;;;;;5016846;28;20026;-71
2021/05/18 00:33:33;;;;;;;3.03;0.43;;;10.10;86.10;;;;;;5016461;28;20065;-72
2021/05/18 00:36:00;;;;;;;0.63;0.20;;;9.90;85.80;;;;;;5016442;28;20072;-72
2021/05/18 00:38:26;;;;;;;1.95;0.30;;;9.80;86.10;;;;;;5016826;28;20439;-72
2021/05/18 00:40:52;;;;;;;1.33;0.38;;;9.70;86.90;;;;;;5016443;28;20053;-72
2021/05/18 00:43:18;;;;;;;0.65;0.20;;;9.70;87.90;;;;;;5016498;28;20033;-72
2021/05/18 00:45:47;;;;;;;1.85;0.40;;;9.70;86.70;;;;;;5016638;28;20050;-72
2021/05/18 00:48:14;;;;;;;1.48;0.47;;;9.70;87.00;;;;;;5016477;28;20061;-72
2021/05/18 00:50:42;;;;;;;3.00;0.52;;;9.80;86.00;;;;;;5020011;28;20418;-72
2021/05/18 00:53:09;;;;;;;0.40;0.20;;;9.80;86.50;;;;;;5020286;28;20030;-72
2021/05/18 00:55:44;;;;;;;2.53;0.50;;;9.80;86.60;;;;;;5020276;28;20030;-71
2021/05/18 01:01:18;;;;;;;1.45;0.20;;;9.80;86.30;;;;;;5018025;28;20033;-72
2021/05/18 01:03:45;;;;;;;0.90;0.30;;;9.90;86.50;;;;;;5019667;28;20046;-72
2021/05/18 01:08:45;;;;;;;1.23;0.30;;;9.80;86.20;;;;;;5020084;28;20040;-72
2021/05/18 01:11:14;;;;;;;0.90;0.47;;;9.70;86.90;;;;;;5019970;28;20105;-72
2021/05/18 01:13:40;;;;;;;1.65;0.40;;;9.60;86.50;;;;;;5019515;28;20041;-72
2021/05/18 01:16:09;;;;;;;2.42;0.30;;;9.60;88.60;;;;;;5019909;28;20048;-72
2021/05/18 01:18:39;;;;;;;0.32;0.20;;;9.60;89.20;;;;;;5019848;28;20160;-72
2021/05/18 01:21:05;;;;;;;1.10;0.20;;;9.50;89.80;;;;;;5019777;28;20422;-72
2021/05/18 01:23:31;;;;;;;5.20;0.40;;;9.40;88.70;;;;;;5019805;28;20076;-72
2021/05/18 01:25:57;;;;;;;3.00;0.77;;;9.40;90.30;;;;;;5019122;28;20116;-73
2021/05/18 01:28:24;;;;;;;2.70;0.40;;;9.40;90.20;;;;;;5019719;28;20038;-72
2021/05/18 01:30:50;;;;;;;4.32;0.30;;;9.40;90.00;;;;;;5019586;28;20026;-72
2021/05/18 01:33:16;;;;;;;1.45;0.30;;;9.40;90.00;;;;;;5019550;28;20060;-72
2021/05/18 01:35:43;;;;;;;5.32;0.40;;;9.40;89.50;;;;;;5019158;28;20022;-71
2021/05/18 01:38:12;;;;;;;2.10;0.30;;;9.40;90.00;;;;;;5019214;28;20022;-72
2021/05/18 01:43:22;;;;;;;0.70;0.32;;;9.50;89.20;;;;;;5019717;28;20037;-71
2021/05/18 01:45:48;;;;;;;1.10;0.45;;;9.50;88.80;;;;;;5019335;28;20025;-72
2021/05/18 01:48:16;;;;;;;2.42;0.28;;;9.50;88.70;;;;;;5019004;28;20037;-72
2021/05/18 01:50:48;;;;;;;0.85;0.22;;;9.50;88.80;;;;;;5018944;28;20367;-72
2021/05/18 01:53:17;;;;;;;3.17;0.40;;;9.50;87.70;;;;;;5019134;28;20026;-72
2021/05/18 01:55:57;;;;;;;3.53;0.28;;;9.50;88.90;;;;;;5019187;28;20076;-72
2021/05/18 01:58:23;;;;;;;2.97;0.35;;;9.50;89.00;;;;;;5018847;28;20084;-71
2021/05/18 02:00:49;;;;;;;1.85;0.40;;;9.50;88.70;;;;;;5018272;28;20026;-71
2021/05/18 02:03:15;;;;;;;2.75;0.50;;;9.50;87.30;;;;;;5018758;28;20064;-71
2021/05/18 02:05:41;;;;;;;2.78;0.43;;;9.70;87.00;;;;;;5018529;28;20030;-72
2021/05/18 02:08:10;;;;;;;1.73;0.30;;;9.90;86.60;;;;;;5018572;28;20034;-71
2021/05/18 02:10:36;;;;;;;0.95;0.30;;;10.00;86.10;;;;;;5018519;28;20430;-72
2021/05/18 02:13:02;;;;;;;2.03;0.30;;;10.20;86.20;;;;;;5018785;28;20027;-71
2021/05/18 02:18:37;;;;;;;1.23;0.38;;;10.30;86.30;;;;;;5018783;28;20037;-72
2021/05/18 02:26:20;;;;;;;4.78;0.80;;;10.00;87.40;;;;;;5018316;28;20083;-72
2021/05/18 02:28:46;;;;;;;3.65;0.40;;;10.00;88.50;;;;;;5018277;28;20037;-72
2021/05/18 02:31:13;;;;;;;0.70;0.40;;;9.90;88.20;;;;;;5018484;28;20036;-72
2021/05/18 02:33:39;;;;;;;2.20;0.40;;;9.80;87.60;;;;;;5018417;28;20327;-72
2021/05/18 02:36:06;;;;;;;0.95;0.32;;;9.70;88.00;;;;;;5018382;28;20029;-72
2021/05/18 02:38:32;;;;;;;1.17;0.30;;;9.70;87.70;;;;;;5018070;28;20058;-72
2021/05/18 02:40:57;;;;;;;2.03;0.63;;;9.70;87.80;;;;;;5018257;28;20026;-72
2021/05/18 02:43:31;;;;;;;0.40;0.20;;;9.60;88.60;;;;;;5018297;28;20033;-72
2021/05/18 02:51:25;;;;;;;3.97;0.40;;;9.50;87.80;;;;;;5017954;28;20037;-71
2021/05/18 02:53:51;;;;;;;2.63;0.47;;;9.60;87.00;;;;;;5017971;28;20046;-72
2021/05/18 02:58:53;;;;;;;1.50;0.40;;;9.80;87.00;;;;;;5017726;28;20115;-72
2021/05/18 03:01:19;;;;;;;;;;;9.80;87.60;;;;;;5018125;28;20026;-71
2021/05/18 03:03:45;;;;;;;1.75;0.30;;;9.70;87.90;;;;;;5017621;28;19916;-72
2021/05/18 03:06:10;;;;;;;3.22;0.55;;;9.70;87.60;;;;;;5017992;28;20041;-72
2021/05/18 03:08:38;;;;;;;1.48;0.30;;;9.60;88.30;;;;;;5017571;28;20056;-72
2021/05/18 03:11:07;;;;;;;0.52;0.20;;;9.60;87.80;;;;;;5017758;28;20030;-71
2021/05/18 03:13:32;;;;;;;1.80;0.50;;;9.60;87.90;;;;;;5017421;28;20101;-72
2021/05/18 03:15:58;;;;;;;0.73;0.25;;;9.60;88.90;;;;;;5017413;28;20113;-72
2021/05/18 03:18:24;;;;;;;1.60;0.32;;;9.60;88.30;;;;;;5017391;28;20033;-72
2021/05/18 03:20:50;;;;;;;2.17;0.40;;;9.60;87.50;;;;;;5017339;28;20044;-72
2021/05/18 03:23:15;;;;;;;0.60;0.40;;;9.60;87.30;;;;;;5017631;28;20029;-72
2021/05/18 03:25:41;;;;;;;2.88;0.60;;;9.60;87.00;;;;;;5017463;28;20093;-71
2021/05/18 03:28:07;;;;;;;2.72;0.70;;;9.70;87.40;;;;;;5017149;28;20050;-72
2021/05/18 03:35:44;;;;;;;2.65;0.30;;;9.50;88.70;;;;;;5017446;28;20068;-71
2021/05/18 03:38:25;;;;;;;2.53;0.38;;;9.40;88.70;;;;;;5017392;28;20026;-72
2021/05/18 03:41:01;;;;;;;1.52;0.30;;;9.40;88.80;;;;;;5017401;28;20029;-72
2021/05/18 04:04:34;;;;;;;5.38;0.45;;;9.20;89.90;;;;;;5016842;28;20121;-72
2021/05/18 04:12:41;;;;;;;0.57;0.30;;;9.20;89.90;;;;;;5017063;28;20045;-72
2021/05/18 04:52:37;;;;;;;37.53;21.23;;;10.00;94.60;;;;;;5020341;28;20041;-71
2021/05/18 05:00:21;;;;;;;5.03;3.15;;;10.40;94.20;;;;;;5020183;28;20037;-72
2021/05/18 05:02:56;;;;;;;3.33;1.60;;;10.50;93.60;;;;;;5019881;28;20446;-72
2021/05/18 05:15:31;;;;;;;1.17;0.80;;;11.00;90.20;;;;;;5019907;28;20034;-72
2021/05/18 05:17:57;;;;;;;3.10;1.30;;;11.10;90.00;;;;;;5019905;28;20025;-72
2021/05/18 05:20:23;;;;;;;1.40;0.80;;;11.20;90.30;;;;;;5019834;28;20026;-72
2021/05/18 05:22:48;;;;;;;1.65;0.85;;;11.30;90.00;;;;;;5019844;28;20021;-72
2021/05/18 05:25:14;;;;;;;2.20;0.73;;;11.40;89.60;;;;;;5019593;28;20188;-72
2021/05/18 05:27:40;;;;;;;3.03;0.77;;;11.50;89.00;;;;;;5019362;28;20130;-72
2021/05/18 05:30:07;;;;;;;2.75;0.55;;;11.70;88.90;;;;;;5019372;28;20334;-72
2021/05/18 05:32:32;;;;;;;2.28;0.68;;;11.70;87.90;;;;;;5019288;28;20030;-72
2021/05/18 05:34:58;;;;;;;2.15;0.52;;;11.90;86.20;;;;;;5018542;28;20030;-71
2021/05/18 05:37:25;;;;;;;1.40;0.52;;;12.00;85.90;;;;;;5019024;28;20022;-72
2021/05/18 05:39:51;;;;;;;1.63;0.50;;;12.20;83.40;;;;;;5019496;28;20083;-72
2021/05/18 05:42:17;;;;;;;1.48;0.63;;;12.20;82.40;;;;;;5019493;28;20064;-72
2021/05/18 05:44:43;;;;;;;3.97;0.80;;;12.20;83.70;;;;;;5019017;28;20373;-72
2021/05/18 05:47:09;;;;;;;1.13;0.40;;;12.20;84.90;;;;;;5019354;28;20048;-72
2021/05/18 05:49:34;;;;;;;5.20;0.63;;;12.30;84.50;;;;;;5019291;28;20403;-72
2021/05/18 05:52:00;;;;;;;1.85;1.40;;;12.40;84.00;;;;;;5018987;28;20030;-72
2021/05/18 05:54:26;;;;;;;1.92;0.70;;;12.60;84.30;;;;;;5019021;28;20026;-72
2021/05/18 05:56:51;;;;;;;2.72;0.70;;;12.80;84.50;;;;;;5018847;28;20469;-71
2021/05/18 05:59:19;;;;;;;5.00;0.50;;;12.90;83.40;;;;;;5018821;28;20084;-72
2021/05/18 06:01:47;;;;;;;1.40;0.60;;;13.10;82.80;;;;;;5019067;28;20322;-72
2021/05/18 06:04:13;;;;;;;1.33;0.47;;;13.20;83.50;;;;;;5018974;28;20326;-72
2021/05/18 06:06:39;;;;;;;4.38;1.17;;;13.40;81.80;;;;;;5018979;28;20097;-72
2021/05/18 06:09:05;;;;;;;1.33;0.50;;;13.50;80.10;;;;;;5017576;28;20541;-72
2021/05/18 06:14:07;;;;;;;1.10;0.40;;;13.60;77.00;;;;;;5018503;28;20113;-72
2021/05/18 06:43:16;;;;;;;0.70;0.28;;;20.50;58.40;;;;;;5018394;28;20025;-72
2021/05/18 06:48:14;;;;;;;0.68;0.30;;;20.90;57.10;;;;;;5017730;28;20331;-72
2021/05/18 06:50:40;;;;;;;0.77;0.47;;;21.00;57.60;;;;;;5017795;28;20026;-72
2021/05/18 06:53:06;;;;;;;2.78;0.50;;;20.80;58.10;;;;;;5017810;28;20032;-72
2021/05/18 06:55:33;;;;;;;0.85;0.32;;;20.80;58.80;;;;;;5018142;28;20064;-72
2021/05/18 07:00:30;;;;;;;1.15;0.40;;;20.90;59.20;;;;;;5017744;28;20323;-70
2021/05/18 07:02:57;;;;;;;0.85;0.30;;;21.20;59.40;;;;;;5017698;28;20026;-70
2021/05/18 07:10:39;;;;;;;2.28;0.50;;;21.90;57.30;;;;;;5017511;28;20029;-70
2021/05/18 07:13:05;;;;;;;1.63;0.40;;;22.10;56.60;;;;;;5017416;28;20022;-70
2021/05/18 07:15:31;;;;;;;2.35;0.60;;;22.20;55.80;;;;;;5017394;28;20056;-70
2021/05/18 07:17:58;;;;;;;1.98;0.75;;;22.10;55.80;;;;;;5017711;28;20023;-70
2021/05/18 07:20:24;;;;;;;3.30;0.40;;;22.20;56.40;;;;;;5017631;28;20018;-70
2021/05/18 07:22:55;;;;;;;0.52;0.30;;;22.40;56.10;;;;;;5017403;28;20149;-70
2021/05/18 07:25:21;;;;;;;1.42;0.30;;;22.40;55.60;;;;;;5017488;28;20042;-70
2021/05/18 07:27:46;;;;;;;2.35;0.30;;;22.60;57.80;;;;;;5017059;28;20050;-70
2021/05/18 07:30:13;;;;;;;1.13;0.43;;;22.80;53.30;;;;;;5017503;28;20036;-70
2021/05/18 07:32:39;;;;;;;1.98;0.52;;;22.70;54.80;;;;;;5017438;28;20318;-70
2021/05/18 07:35:07;;;;;;;2.40;0.50;;;22.60;55.90;;;;;;5017078;28;20105;-70
2021/05/18 07:37:33;;;;;;;1.63;0.30;;;22.40;56.00;;;;;;5017112;28;20056;-71
2021/05/18 07:39:59;;;;;;;1.17;0.30;;;22.50;57.10;;;;;;5017050;28;20437;-71
2021/05/18 07:42:25;;;;;;;2.55;0.40;;;22.90;56.90;;;;;;5017059;28;20029;-70
2021/05/18 07:44:50;;;;;;;1.13;0.40;;;23.30;55.50;;;;;;5017263;28;20025;-70
2021/05/18 07:47:17;;;;;;;2.10;0.50;;;23.40;53.40;;;;;;5016959;28;20022;-70
2021/05/18 07:49:47;;;;;;;2.63;0.40;;;23.60;55.20;;;;;;5016948;28;20037;-70
2021/05/18 08:05:32;;;;;;;1.88;0.50;;;24.30;55.70;;;;;;5017288;28;20319;-70
2021/05/18 08:07:58;;;;;;;3.63;0.60;;;24.30;54.30;;;;;;5016813;28;20037;-71
2021/05/18 08:12:57;;;;;;;3.05;0.60;;;24.10;57.20;;;;;;5016721;28;20033;-70
2021/05/18 10:38:24;;;;;;;4.32;1.02;;;24.50;57.90;;;;;;5018930;28;20038;-72
2021/05/18 10:41:10;;;;;;;3.22;0.70;;;24.60;60.00;;;;;;5017885;28;20419;-72
2021/05/18 10:43:37;;;;;;;4.50;0.70;;;23.80;62.50;;;;;;5011017;28;20439;-72
2021/05/18 10:46:10;;;;;;;2.88;1.00;;;23.30;61.90;;;;;;5017896;28;20030;-72
2021/05/18 10:48:38;;;;;;;3.75;0.70;;;23.70;63.00;;;;;;5018204;28;20026;-72
2021/05/18 10:51:33;;;;;;;2.22;1.10;;;24.10;58.90;;;;;;5018161;28;20076;-72
2021/05/18 10:54:10;;;;;;;2.65;0.73;;;24.30;61.20;;;;;;5018043;28;20180;-72
2021/05/18 10:57:12;;;;;;;3.17;0.90;;;24.70;57.80;;;;;;5018096;28;20414;-72
2021/05/18 10:59:49;;;;;;;4.63;1.05;;;24.70;58.10;;;;;;4996665;28;20042;-72
2021/05/18 11:02:39;;;;;;;3.42;1.08;;;24.40;61.00;;;;;;5017988;28;20079;-72
2021/05/18 11:05:08;;;;;;;8.70;1.88;;;23.70;56.10;;;;;;5012452;28;20466;-72
2021/05/18 11:07:37;;;;;;;2.00;1.08;;;23.70;61.40;;;;;;5017862;28;20022;-72
2021/05/18 11:10:14;;;;;;;3.20;1.00;;;23.70;57.20;;;;;;5017563;28;20026;-72
2021/05/18 11:12:41;;;;;;;3.28;0.80;;;23.80;59.90;;;;;;5017504;28;20030;-72
2021/05/18 11:15:16;;;;;;;5.20;0.90;;;23.30;60.30;;;;;;5017786;28;20311;-72
2021/05/18 11:17:50;;;;;;;3.58;0.90;;;22.70;63.10;;;;;;5017483;28;20026;-72
2021/05/18 11:23:29;;;;;;;2.90;0.90;;;23.10;56.40;;;;;;5017499;28;20381;-72
2021/05/18 11:25:57;;;;;;;3.38;0.88;;;23.40;63.00;;;;;;5017473;28;20029;-72
2021/05/18 11:28:33;;;;;;;2.20;1.00;;;22.70;59.60;;;;;;5017529;28;20057;-72
2021/05/18 11:31:03;;;;;;;;;;;22.60;59.60;;;;;;5017963;28;20369;-72
2021/05/18 11:33:31;;;;;;;2.22;0.90;;;22.70;63.00;;;;;;5016583;28;19909;-72
2021/05/18 11:36:12;;;;;;;2.45;1.00;;;22.70;60.00;;;;;;5017398;28;20379;-72
2021/05/18 11:38:40;;;;;;;2.50;0.77;;;22.40;61.30;;;;;;5017420;28;20022;-72
2021/05/18 11:41:07;;;;;;;3.40;0.80;;;22.50;62.90;;;;;;5017411;28;20084;-72
2021/05/18 11:43:36;;;;;;;2.90;0.90;;;22.50;66.40;;;;;;5017415;28;20361;-72
2021/05/18 11:46:12;;;;;;;1.92;0.80;;;22.70;60.70;;;;;;5017229;28;20092;-72
2021/05/18 11:48:40;;;;;;;3.10;0.70;;;22.40;63.40;;;;;;5017060;28;20435;-72
2021/05/18 11:51:14;;;;;;;4.60;0.88;;;22.50;60.40;;;;;;5016968;28;20022;-72
2021/05/18 11:53:51;;;;;;;2.65;0.60;;;22.50;62.40;;;;;;5016897;28;20076;-72
2021/05/18 11:56:29;;;;;;;4.80;0.77;;;22.50;61.80;;;;;;5017286;28;20033;-72
2021/05/18 11:58:59;;;;;;;1.23;0.60;;;22.40;64.60;;;;;;5017166;28;20034;-72
2021/05/18 12:01:25;;;;;;;2.13;0.70;;;22.20;60.00;;;;;;5017092;28;20318;-72
2021/05/18 12:04:01;;;;;;;1.15;0.60;;;21.90;65.70;;;;;;5016945;28;20418;-72
2021/05/18 12:06:27;;;;;;;6.95;0.68;;;21.90;62.10;;;;;;5016783;28;20452;-72
2021/05/18 12:09:00;;;;;;;0.70;0.45;;;21.80;63.40;;;;;;5016789;28;20112;-72
2021/05/18 12:11:26;;;;;;;2.80;0.85;;;21.50;64.40;;;;;;5016968;28;20022;-71
2021/05/18 12:13:53;;;;;;;1.13;0.50;;;21.30;61.90;;;;;;5016961;28;20117;-72
2021/05/18 12:16:24;;;;;;;1.20;0.60;;;21.40;63.30;;;;;;5017018;28;20033;-71
2021/05/18 12:18:58;;;;;;;2.35;0.65;;;21.30;66.50;;;;;;5017053;28;20314;-72
2021/05/18 12:21:29;;;;;;;2.70;0.60;;;21.20;66.00;;;;;;5016971;28;20030;-72
2021/05/18 12:24:15;;;;;;;4.57;0.70;;;21.10;63.90;;;;;;5016623;28;20036;-71
2021/05/18 12:26:48;;;;;;;1.30;0.60;;;21.20;65.10;;;;;;5016627;28;20062;-72
2021/05/18 12:29:37;;;;;;;1.40;0.50;;;21.30;64.10;;;;;;5016908;28;20034;-72
2021/05/18 12:32:23;;;;;;;2.05;0.70;;;21.30;69.10;;;;;;5016877;28;20034;-72
2021/05/18 12:34:51;;;;;;;1.90;0.57;;;21.30;62.90;;;;;;5016786;28;20030;-72
2021/05/18 12:37:18;;;;;;;1.02;0.60;;;21.00;64.10;;;;;;5016518;28;20022;-71
2021/05/18 12:39:47;;;;;;;2.35;0.40;;;20.80;63.20;;;;;;5016378;28;20026;-71
2021/05/18 12:42:27;;;;;;;1.83;0.50;;;20.70;59.40;;;;;;5016553;28;20314;-71
2021/05/18 12:45:07;;;;;;;1.35;0.70;;;20.50;57.50;;;;;;5017643;28;20086;-71
2021/05/18 12:47:38;;;;;;;2.10;0.60;;;20.10;60.10;;;;;;5020536;28;20026;-72
2021/05/18 12:50:16;;;;;;;1.55;0.70;;;19.90;62.50;;;;;;5020244;28;20034;-71
2021/05/18 12:52:52;;;;;;;2.05;0.40;;;20.00;64.60;;;;;;5020093;28;20041;-72
2021/05/18 12:55:31;;;;;;;1.88;0.70;;;19.90;64.30;;;;;;5020423;28;20026;-71
2021/05/18 12:57:58;;;;;;;3.58;0.80;;;20.10;66.20;;;;;;5020362;28;20030;-71
2021/05/18 13:00:36;;;;;;;1.60;0.70;;;20.10;64.80;;;;;;5019961;28;20030;-72
2021/05/18 13:03:21;;;;;;;1.83;0.50;;;19.90;63.10;;;;;;5020283;28;20098;-72
2021/05/18 13:05:57;;;;;;;2.08;0.60;;;20.00;68.00;;;;;;5019794;28;20476;-71
2021/05/18 13:08:24;;;;;;;0.82;0.50;;;20.10;64.70;;;;;;5020134;28;20025;-72
2021/05/18 13:13:23;;;;;;;3.35;0.82;;;19.90;61.20;;;;;;5019728;28;20030;-71
2021/05/18 13:15:49;;;;;;;2.17;0.75;;;19.50;62.60;;;;;;5019680;28;20034;-71
2021/05/18 13:18:16;;;;;;;3.15;0.60;;;19.40;67.80;;;;;;5019645;28;20018;-71
2021/05/18 13:20:52;;;;;;;1.42;0.60;;;19.20;66.30;;;;;;5019547;28;20029;-71
2021/05/18 13:23:27;;;;;;;;;;;19.00;70.80;;;;;;5020318;28;20036;-71
2021/05/18 13:28:37;;;;;;;2.63;0.43;;;19.00;68.30;;;;;;5019780;28;20056;-72
2021/05/18 13:31:04;;;;;;;4.63;1.50;;;19.20;69.00;;;;;;5019672;28;20109;-71
2021/05/18 13:33:30;;;;;;;2.15;0.52;;;19.40;66.10;;;;;;5019649;28;20103;-72
2021/05/18 13:35:55;;;;;;;2.22;0.40;;;19.50;69.20;;;;;;5019222;28;20364;-72
2021/05/18 13:38:22;;;;;;;1.13;0.50;;;19.50;61.80;;;;;;5019279;28;20022;-71
2021/05/18 13:40:49;;;;;;;1.95;0.52;;;19.50;62.20;;;;;;5019502;28;20026;-72
2021/05/18 13:43:14;;;;;;;1.33;0.45;;;19.50;60.50;;;;;;5019476;28;20033;-71
2021/05/18 13:45:40;;;;;;;1.70;0.60;;;19.50;65.00;;;;;;5019341;28;20033;-72
2021/05/18 13:48:07;;;;;;;3.72;1.08;;;19.60;66.40;;;;;;5019127;28;20026;-72
2021/05/18 13:50:33;;;;;;;2.47;0.63;;;19.50;62.70;;;;;;5019018;28;20433;-72
2021/05/18 13:52:59;;;;;;;4.22;0.40;;;19.50;68.00;;;;;;5019335;28;20038;-72
2021/05/18 13:55:26;;;;;;;1.95;0.50;;;19.50;67.80;;;;;;5019025;28;20080;-72
2021/05/18 13:57:52;;;;;;;1.67;0.50;;;19.60;66.40;;;;;;5018335;28;20334;-72
2021/05/18 14:00:19;;;;;;;1.13;0.40;;;19.80;67.60;;;;;;5018831;28;20022;-72
2021/05/18 14:02:46;;;;;;;1.85;0.52;;;19.90;62.90;;;;;;5019127;28;20030;-72
2021/05/18 14:05:16;;;;;;;1.33;0.50;;;20.20;68.20;;;;;;5019023;28;20033;-72
2021/05/18 14:08:22;;;;;;;1.23;0.50;;;20.40;62.30;;;;;;5019057;28;20029;-72
2021/05/18 14:10:44;;;;;;;4.40;0.50;;;20.60;61.50;;;;;;5018525;28;20422;-72
2021/05/18 14:13:10;;;;;;;4.93;1.30;;;20.70;65.00;;;;;;5018891;28;20076;-72
2021/05/18 14:15:36;;;;;;;2.05;0.32;;;20.60;58.50;;;;;;5018805;28;20025;-71
2021/05/18 14:18:02;;;;;;;2.38;0.50;;;20.40;61.10;;;;;;5018552;28;20153;-71
2021/05/18 14:20:28;;;;;;;1.90;0.40;;;20.30;63.50;;;;;;5018762;28;20041;-72
2021/05/18 14:22:53;;;;;;;1.63;0.50;;;20.30;67.80;;;;;;5018818;28;20018;-72
2021/05/18 14:25:19;;;;;;;2.88;0.40;;;20.20;63.40;;;;;;5018693;28;20397;-71
2021/05/18 14:27:45;;;;;;;2.05;0.40;;;20.00;63.80;;;;;;5018203;28;20050;-72
2021/05/18 14:30:13;;;;;;;1.88;0.50;;;19.90;65.20;;;;;;5018321;28;20109;-71
2021/05/18 14:32:41;;;;;;;2.67;0.60;;;19.90;63.70;;;;;;5018292;28;20448;-72
2021/05/18 14:35:09;;;;;;;1.42;0.50;;;19.80;65.80;;;;;;5018373;28;20053;-72
2021/05/18 14:37:38;;;;;;;3.13;0.40;;;19.70;67.40;;;;;;5018102;28;20033;-72
2021/05/18 14:45:16;;;;;;;1.33;0.50;;;19.60;67.70;;;;;;5018425;28;20022;-72
2021/05/18 14:53:41;;;;;;;3.20;0.93;;;19.50;67.20;;;;;;5018299;28;20030;-72
2021/05/18 14:54:27;;;;;;;2.03;0.30;;;19.50;66.20;;;;;;5019296;28;20449;-72
2021/05/18 14:56:13;;;;;;;0.80;0.40;;;19.50;69.30;;;;;;5017219;28;20045;-72
2021/05/18 14:58:39;;;;;;;1.50;0.50;;;19.50;69.60;;;;;;5017782;28;20030;-72
2021/05/18 15:01:05;;;;;;;0.93;0.38;;;19.50;68.40;;;;;;5018069;28;20018;-72
2021/05/18 15:03:32;;;;;;;3.42;0.65;;;19.50;66.10;;;;;;5017762;28;20038;-72
2021/05/18 15:06:01;;;;;;;1.70;0.60;;;19.50;66.40;;;;;;5017621;28;20449;-72
2021/05/18 15:08:27;;;;;;;2.17;0.50;;;19.30;65.00;;;;;;5017739;28;20068;-72
2021/05/18 15:10:57;;;;;;;2.25;0.40;;;19.20;65.60;;;;;;5017558;28;20033;-71
2021/05/18 15:13:23;;;;;;;3.40;0.60;;;19.30;67.40;;;;;;5017800;28;20030;-71
2021/05/18 15:15:49;;;;;;;2.50;0.50;;;19.20;67.70;;;;;;5017431;28;20049;-72
2021/05/18 15:18:16;;;;;;;1.35;0.65;;;19.10;67.10;;;;;;5017528;28;20053;-71
2021/05/18 15:20:41;;;;;;;1.50;0.43;;;19.00;68.50;;;;;;5017391;28;20041;-72
2021/05/18 15:23:07;;;;;;;1.60;0.80;;;18.70;69.80;;;;;;5017748;28;20029;-71
2021/05/18 15:25:33;;;;;;;1.45;0.60;;;18.60;72.30;;;;;;5017333;28;20084;-72
2021/05/18 15:27:59;;;;;;;2.55;0.50;;;18.60;71.60;;;;;;5017177;28;20141;-72
2021/05/18 15:30:24;;;;;;;2.58;0.68;;;18.60;68.90;;;;;;5017281;28;20363;-72
2021/05/18 15:32:50;;;;;;;3.35;0.50;;;18.60;67.20;;;;;;5017202;28;20044;-72
2021/05/18 15:35:16;;;;;;;4.70;0.50;;;18.40;71.00;;;;;;5017131;28;20024;-72
2021/05/18 15:37:45;;;;;;;0.73;0.43;;;18.40;74.60;;;;;;5017500;28;20022;-71
2021/05/18 15:40:12;;;;;;;2.38;0.88;;;18.30;74.40;;;;;;5017402;28;20029;-72
2021/05/18 15:42:38;;;;;;;1.85;0.75;;;18.30;74.80;;;;;;5017037;28;20025;-71
2021/05/18 15:45:05;;;;;;;1.10;0.50;;;18.20;72.30;;;;;;5017322;28;20034;-72
2021/05/18 15:47:32;;;;;;;5.03;0.80;;;18.10;72.90;;;;;;5017215;28;20322;-72
2021/05/18 15:49:59;;;;;;;1.80;0.60;;;18.10;73.20;;;;;;5017017;28;20410;-72
2021/05/18 15:52:25;;;;;;;1.13;0.50;;;18.10;74.70;;;;;;5016959;28;20057;-72
2021/05/18 15:54:51;;;;;;;1.23;0.50;;;18.10;71.80;;;;;;5016864;28;20030;-72
2021/05/18 15:57:17;;;;;;;1.05;0.47;;;18.10;71.50;;;;;;5016865;28;20105;-71
2021/05/18 15:59:47;;;;;;;2.90;0.40;;;18.00;70.40;;;;;;5017250;28;20346;-72
2021/05/18 16:02:13;;;;;;;1.38;0.57;;;18.00;73.70;;;;;;5017195;28;20303;-72
2021/05/18 16:04:39;;;;;;;2.22;0.60;;;18.00;70.60;;;;;;5017075;28;20033;-72
2021/05/18 16:07:08;;;;;;;2.85;0.60;;;17.90;71.60;;;;;;5017145;28;20373;-71
2021/05/18 16:09:34;;;;;;;1.85;0.30;;;17.80;72.50;;;;;;5017072;28;20306;-72
2021/05/18 16:12:00;;;;;;;1.00;0.50;;;17.80;73.10;;;;;;5017126;28;20042;-72
2021/05/18 16:14:26;;;;;;;0.70;0.40;;;17.70;72.60;;;;;;5016934;28;20097;-72
2021/05/18 16:16:51;;;;;;;0.95;0.40;;;17.70;72.00;;;;;;5016755;28;20049;-72
2021/05/18 16:19:18;;;;;;;1.52;0.50;;;17.60;70.40;;;;;;5017302;28;20022;-71
2021/05/18 16:21:44;;;;;;;2.75;0.60;;;17.40;72.50;;;;;;5020732;28;20026;-72
2021/05/18 16:24:10;;;;;;;0.95;0.50;;;17.30;74.40;;;;;;5020871;28;20369;-71
2021/05/18 16:26:35;;;;;;;2.92;0.52;;;17.20;78.50;;;;;;5020429;28;20098;-72
2021/05/18 16:29:03;;;;;;;1.35;0.50;;;16.90;77.90;;;;;;5021001;28;20037;-72
2021/05/18 16:31:30;;;;;;;1.80;0.70;;;16.70;76.80;;;;;;5020782;28;20034;-72
2021/05/18 16:33:57;;;;;;;2.13;0.50;;;16.50;78.20;;;;;;5020698;28;20291;-72
2021/05/18 16:36:23;;;;;;;3.78;0.60;;;16.50;77.10;;;;;;5020733;28;20045;-72
2021/05/18 16:38:49;;;;;;;1.92;0.50;;;16.50;73.90;;;;;;5020394;28;20026;-72
2021/05/18 16:41:15;;;;;;;1.10;0.47;;;16.50;73.30;;;;;;5020670;28;20022;-71
2021/05/18 16:43:43;;;;;;;1.30;0.50;;;16.50;74.40;;;;;;5020289;28;20026;-72
2021/05/18 16:46:09;;;;;;;1.17;0.50;;;16.50;75.20;;;;;;5020292;28;20026;-71
2021/05/18 16:48:35;;;;;;;1.35;0.57;;;16.50;75.30;;;;;;5020218;28;20030;-71
2021/05/18 16:51:04;;;;;;;4.35;0.80;;;16.50;75.50;;;;;;5020481;28;20108;-72
2021/05/18 16:53:31;;;;;;;7.72;1.58;;;16.50;77.60;;;;;;5020419;28;20422;-71
2021/05/18 16:55:58;;;;;;;10.88;1.92;;;16.30;79.90;;;;;;5020359;28;20030;-72
2021/05/18 16:58:24;;;;;;;2.92;0.98;;;16.10;86.60;;;;;;5020068;28;20026;-71
2021/05/18 17:00:49;;;;;;;1.88;0.85;;;15.70;86.80;;;;;;5020262;28;20032;-71
2021/05/18 17:03:15;;;;;;;4.25;1.10;;;15.20;83.00;;;;;;5020299;28;20060;-71
2021/05/18 17:05:42;;;;;;;3.03;0.90;;;14.80;88.10;;;;;;5020141;28;20052;-71
2021/05/18 17:08:08;;;;;;;2.25;0.90;;;14.60;89.70;;;;;;5020159;28;20108;-71
2021/05/18 17:10:36;;;;;;;1.63;0.82;;;14.50;87.70;;;;;;5019811;28;20426;-71
2021/05/18 17:13:03;;;;;;;3.35;1.20;;;14.20;89.60;;;;;;5019720;28;20028;-71
2021/05/18 17:15:29;;;;;;;6.47;0.70;;;13.70;91.10;;;;;;5020085;28;20026;-71
2021/05/18 17:17:56;;;;;;;2.97;0.85;;;13.40;89.20;;;;;;5020007;28;20014;-71
2021/05/18 17:20:23;;;;;;;4.80;0.98;;;13.00;90.80;;;;;;5019975;28;20034;-71
2021/05/18 17:22:49;;;;;;;3.70;1.00;;;12.80;89.90;;;;;;5019947;28;20473;-71
2021/05/18 17:25:15;;;;;;;8.38;0.90;;;12.60;90.40;;;;;;5019661;28;20109;-71
2021/05/18 17:27:41;;;;;;;6.07;1.02;;;12.40;92.40;;;;;;5019412;28;20050;-71
2021/05/18 17:30:10;;;;;;;5.03;0.80;;;12.20;92.50;;;;;;5019414;28;20487;-71
2021/05/18 17:32:36;;;;;;;2.80;0.60;;;12.00;93.10;;;;;;5019455;28;20101;-71
2021/05/18 17:35:02;;;;;;;3.35;0.73;;;11.90;92.20;;;;;;5019553;28;20501;-73
2021/05/18 17:37:28;;;;;;;0.98;0.60;;;11.80;93.70;;;;;;5019577;28;20022;-72
2021/05/18 17:39:54;;;;;;;3.47;0.60;;;11.80;92.50;;;;;;5019232;28;20373;-73
2021/05/18 17:42:20;;;;;;;1.20;0.60;;;11.80;92.80;;;;;;5019546;28;20029;-71
2021/05/18 17:44:48;;;;;;;2.00;0.60;;;11.80;92.90;;;;;;5019436;28;20080;-72
2021/05/18 17:47:14;;;;;;;1.98;0.50;;;11.80;91.80;;;;;;5019110;28;20418;-71
2021/05/18 17:49:40;;;;;;;6.10;0.63;;;11.90;91.20;;;;;;5019050;28;20080;-71
2021/05/18 17:52:09;;;;;;;1.20;0.63;;;11.90;90.60;;;;;;5019385;28;20026;-71
2021/05/18 17:54:38;;;;;;;2.45;0.70;;;11.90;89.80;;;;;;5018777;28;20067;-71
2021/05/18 17:57:06;;;;;;;2.80;0.70;;;12.00;88.20;;;;;;5018935;28;20041;-71
2021/05/18 17:59:33;;;;;;;4.25;0.63;;;12.20;89.00;;;;;;5019197;28;20045;-71
2021/05/18 18:02:00;;;;;;;1.23;0.60;;;12.20;89.90;;;;;;5019180;28;20033;-71
2021/05/18 18:04:26;;;;;;;2.60;0.88;;;12.30;89.80;;;;;;5019049;28;20026;-71
2021/05/18 18:06:52;;;;;;;3.05;0.60;;;12.40;92.00;;;;;;5018736;28;20034;-71
2021/05/18 18:09:19;;;;;;;5.53;2.05;;;12.40;92.10;;;;;;5019052;28;20101;-72
2021/05/18 18:11:45;;;;;;;2.50;0.93;;;12.50;93.50;;;;;;5018958;28;20365;-71
2021/05/18 18:14:10;;;;;;;1.92;0.95;;;12.50;94.50;;;;;;5018561;28;20105;-71
2021/05/18 18:16:36;;;;;;;3.53;1.10;;;12.50;95.30;;;;;;5018903;28;20076;-71
2021/05/18 18:19:04;;;;;;;3.30;0.75;;;12.50;93.20;;;;;;5018587;28;20037;-71
2021/05/18 18:21:30;;;;;;;4.78;0.85;;;12.60;93.20;;;;;;5018821;28;20322;-72
2021/05/18 18:23:56;;;;;;;1.30;1.00;;;12.80;94.00;;;;;;5018419;28;20041;-72